EUFO2: Eufaula Lake

Data processed at Sat Dec 09 2017 23:09


All information presented herein is the property of the government of the United States of America and may be revised or deleted at any time without prior notice.
Dissemination of this information without the expressed written consent of the Public Affairs Office, Tulsa District U.S. Army Corps of Engineers is strictly prohibited.
These data are gathered electronically and, as presented, have not undergone any form of quality control. These data are not guaranteed to be valid or correct.
Go to home page.
Go to station list.

Upstream stations:

Downstream station:
Previous Day
Next Day
Current Day
    
SHEF ID:       EUFO2     Eufaula Lake
STATION TYPE:  RESERVOIR
Normal Pool:  Bottom =   565.00, Top =   585.00

               PRECIP ELEVATION   STORAGE   TW-ELEV    INFLOW   RELEASE  AIR-TEMP  WIND-DIRWIND-SPEED REL-HUMID SOLAR-RAD   VOLTAGE  BAT-LOAD
                   in        ft     ac-ft        ft       cfs       cfs         F       deg       mph         %      W/m2      volt      volt
              Ccp-Rev   Ccp-Rev   Ccp-Rev   Ccp-Rev  Regi-Rev  Regi-Rev   Ccp-Rev   Ccp-Rev   Ccp-Rev   Ccp-Rev   Ccp-Rev   Ccp-Rev   Ccp-Rev
(US/Central)
12/07 00:00      0.00    583.49   2056647    484.82         0         0     41.76    344.40      1.03     48.35      0.00     13.74     13.53
12/07 01:00      0.00    583.51   2058440    484.29         0         0     40.12    345.30      1.84     51.53      0.00     13.73     13.53
12/07 02:00      0.00    583.51   2058440    483.88         0         0     38.14    346.30      2.13     53.12      0.00     13.73     13.53
12/07 03:00      0.00    583.49   2056647    483.57         0         0     37.58    348.80      3.23     54.82      0.00     13.73     13.53
12/07 04:00      0.00    583.49   2056647    483.33         0         0     35.71    347.10      5.04     60.56      0.00     13.73     13.53
12/07 05:00      0.00    583.49   2056647    483.12         0         0     33.08    347.70      3.29     59.59      0.00     13.73     13.53
12/07 06:00      0.00    583.45   2053061    484.18         0       687     30.88    350.20      3.05     55.87      0.00     13.72     13.53
12/07 07:00      0.00    583.42   2050372    487.81         0     12075     30.54    343.30      2.40     59.71      0.00     13.73     13.53
12/07 08:00      0.00    583.46   2053958    488.81      1940     12270     28.69    338.70      2.83     58.00     19.00     13.72     13.53
12/07 09:00      0.00    583.45   2053061    489.02      3008     12120     28.90    337.40      2.85     54.22    179.00     13.72     13.53
12/07 10:00      0.00    583.41   2049476    489.19      3067     12420     29.89    346.90      4.15     49.40    337.00     13.72     13.53
12/07 11:00      0.00    583.45   2053061    488.32      3126     12270     30.88    346.80      3.83     42.49    378.00     13.72     13.53
12/07 12:00      0.00    583.46   2053958    486.10      3126     12420     32.52    350.80      3.52     40.78    533.00     13.72     13.53
12/07 13:00      0.00    583.43   2051269    485.54      1186       462     34.29    346.40      3.23     37.67    601.00     13.73     13.53
12/07 14:00      0.00    583.42   2050372    484.81       118         0     35.60    331.80      1.82     34.86    529.00     13.72     13.53
12/07 15:00      0.00    583.45   2053061    484.27       306         0     36.37    336.90      1.88     34.86    455.00     13.73     13.53
12/07 16:00      0.00    583.42   2050372    483.88       531         0     36.16    341.70      2.18     34.92    301.00     13.73     13.53
12/07 17:00      0.00    583.39   2047683    484.31         0       229     34.72    344.20      2.99     33.76     51.00     13.73     13.53
12/07 18:00      0.00    583.38   2046787    487.86       816     12075     33.51    341.00      2.40     35.78      2.00     13.73     13.53
12/07 19:00      0.00    583.38   2046787    488.87      3089     12270     32.63    342.30      2.12     37.67      0.00     13.73     13.53
12/07 20:00      0.00    583.36   2044994    489.02      3807     12270     31.33    338.50      1.81     39.08      0.00     13.73     13.36
12/07 21:00      0.00    583.37   2045890    488.79      4280     12270     31.53    342.20      1.45     38.95      0.00     13.72     13.36
12/07 22:00      0.00    583.40   2048580    487.45      4448       231     30.54    350.60      2.00     41.39      0.00     13.72     13.53
12/07 23:00      0.00    583.39   2047683    486.03      4164         0     30.33    329.60      1.36     44.75      0.00     13.72     13.53